39.7°F
Current conditions from King Hill
Updated every 5 minutes
 
  Wednesday April 23, 2014

Station Historical Data
Daily Summary for July 27, 2011 Units:  Both    English   Metric
« Previous Day
Next Day »
Daily Weekly Monthly Yearly Custom
  High: Low: Average:
Temperature: 76.9 °F /  24.9 °C 56.1 °F /  13.4 °C 64.9 °F /  18.3 °C
Dew Point: 66.3 °F /  19.1 °C 54.3 °F /  12.4 °C 59.6 °F /  15.3 °C
Humidity: 96% 61% 84%
Wind Speed: 7.0mph /  11.3km/h - 2mph /  3.2km/h
Wind Gust: 13.0mph /  20.9km/h - -
Wind- - SW
Pressure: 29.97 in /  1014.8 hPa 29.67 in /  1004.6 hPa -
Precipitation: 0.00 in /  0 mm    
Historical Graphs
 
 
Tabular Data for July 27, 2011
Time Temperature Dew Point Pressure Wind Wind Speed Wind Gust Humidity Daily Rainfall
00:00 57.5 °F /  14.2 °C 55.8 °F /  13.2 °C 29.67in /  1004.6hPa Calm     94% 0.14in /  3.6mm
00:05 57.3 °F /  14.1 °C 55.6 °F /  13.1 °C 29.67in /  1004.6hPa Calm     94% 0.00in /  0mm
00:10 57.1 °F /  13.9 °C 55.4 °F /  13 °C 29.67in /  1004.6hPa Calm     94% 0.00in /  0mm
00:15 56.8 °F /  13.8 °C 55.1 °F /  12.8 °C 29.67in /  1004.6hPa Calm     94% 0.00in /  0mm
00:20 56.7 °F /  13.7 °C 55.0 °F /  12.8 °C 29.67in /  1004.6hPa Calm     94% 0.00in /  0mm
00:25 56.6 °F /  13.7 °C 54.9 °F /  12.7 °C 29.67in /  1004.6hPa Calm     94% 0.00in /  0mm
00:30 56.6 °F /  13.7 °C 54.9 °F /  12.7 °C 29.67in /  1004.6hPa Calm   2.0mph /  3.2km/h 94% 0.00in /  0mm
00:35 56.6 °F /  13.7 °C 54.9 °F /  12.7 °C 29.67in /  1004.6hPa Calm   3.0mph /  4.8km/h 94% 0.00in /  0mm
00:40 56.6 °F /  13.7 °C 54.9 °F /  12.7 °C 29.67in /  1004.6hPa Calm   3.0mph /  4.8km/h 94% 0.00in /  0mm
00:45 56.8 °F /  13.8 °C 55.1 °F /  12.8 °C 29.67in /  1004.6hPa Calm   3.0mph /  4.8km/h 94% 0.00in /  0mm
00:50 56.9 °F /  13.8 °C 55.2 °F /  12.9 °C 29.67in /  1004.6hPa Calm   1.0mph /  1.6km/h 94% 0.00in /  0mm
00:55 56.9 °F /  13.8 °C 55.5 °F /  13.1 °C 29.67in /  1004.6hPa SSW 1.0mph /  1.6km/h 4.0mph /  6.4km/h 95% 0.00in /  0mm
01:00 57.0 °F /  13.9 °C 55.6 °F /  13.1 °C 29.67in /  1004.6hPa Calm   4.0mph /  6.4km/h 95% 0.00in /  0mm
01:05 57.2 °F /  14 °C 55.8 °F /  13.2 °C 29.67in /  1004.6hPa Calm   3.0mph /  4.8km/h 95% 0.00in /  0mm
01:10 57.2 °F /  14 °C 55.8 °F /  13.2 °C 29.67in /  1004.6hPa Calm   3.0mph /  4.8km/h 95% 0.00in /  0mm
01:15 57.2 °F /  14 °C 55.8 °F /  13.2 °C 29.67in /  1004.6hPa Calm   1.0mph /  1.6km/h 95% 0.00in /  0mm
01:20 57.2 °F /  14 °C 55.8 °F /  13.2 °C 29.68in /  1005hPa Calm   3.0mph /  4.8km/h 95% 0.00in /  0mm
01:25 57.4 °F /  14.1 °C 56.0 °F /  13.3 °C 29.67in /  1004.6hPa Calm   3.0mph /  4.8km/h 95% 0.00in /  0mm
01:30 57.2 °F /  14 °C 55.8 °F /  13.2 °C 29.68in /  1005hPa Calm   2.0mph /  3.2km/h 95% 0.00in /  0mm
01:35 56.8 °F /  13.8 °C 55.4 °F /  13 °C 29.68in /  1005hPa Calm   1.0mph /  1.6km/h 95% 0.00in /  0mm
01:40 56.9 °F /  13.8 °C 55.5 °F /  13.1 °C 29.68in /  1005hPa Calm   1.0mph /  1.6km/h 95% 0.00in /  0mm
01:45 57.1 °F /  13.9 °C 55.7 °F /  13.2 °C 29.68in /  1005hPa Calm   1.0mph /  1.6km/h 95% 0.00in /  0mm
01:50 57.1 °F /  13.9 °C 55.7 °F /  13.2 °C 29.68in /  1005hPa Calm   1.0mph /  1.6km/h 95% 0.00in /  0mm
01:55 57.0 °F /  13.9 °C 55.6 °F /  13.1 °C 29.68in /  1005hPa Calm   1.0mph /  1.6km/h 95% 0.00in /  0mm
02:00 56.9 °F /  13.8 °C 55.5 °F /  13.1 °C 29.68in /  1005hPa Calm   1.0mph /  1.6km/h 95% 0.00in /  0mm
02:05 57.1 °F /  13.9 °C 55.7 °F /  13.2 °C 29.69in /  1005.3hPa Calm   2.0mph /  3.2km/h 95% 0.00in /  0mm
02:10 57.8 °F /  14.3 °C 56.4 °F /  13.6 °C 29.69in /  1005.3hPa Calm   3.0mph /  4.8km/h 95% 0.00in /  0mm
02:15 58.0 °F /  14.4 °C 56.9 °F /  13.8 °C 29.69in /  1005.3hPa Calm   3.0mph /  4.8km/h 96% 0.00in /  0mm
02:20 58.1 °F /  14.5 °C 56.7 °F /  13.7 °C 29.69in /  1005.3hPa Calm   3.0mph /  4.8km/h 95% 0.00in /  0mm
02:25 58.0 °F /  14.4 °C 56.6 °F /  13.7 °C 29.69in /  1005.3hPa Calm   1.0mph /  1.6km/h 95% 0.00in /  0mm
02:35 57.6 °F /  14.2 °C 56.2 °F /  13.4 °C 29.69in /  1005.3hPa Calm   1.0mph /  1.6km/h 95% 0.00in /  0mm
02:45 57.3 °F /  14.1 °C 55.9 °F /  13.3 °C 29.69in /  1005.3hPa Calm   1.0mph /  1.6km/h 95% 0.00in /  0mm
02:50 57.4 °F /  14.1 °C 56.0 °F /  13.3 °C 29.69in /  1005.3hPa Calm   1.0mph /  1.6km/h 95% 0.00in /  0mm
02:55 57.6 °F /  14.2 °C 56.2 °F /  13.4 °C 29.70in /  1005.6hPa Calm   1.0mph /  1.6km/h 95% 0.00in /  0mm
03:00 57.9 °F /  14.4 °C 56.8 °F /  13.8 °C 29.70in /  1005.6hPa Calm   1.0mph /  1.6km/h 96% 0.00in /  0mm
03:05 58.2 °F /  14.6 °C 57.1 °F /  13.9 °C 29.70in /  1005.6hPa SSW 1.0mph /  1.6km/h 4.0mph /  6.4km/h 96% 0.00in /  0mm
03:10 58.3 °F /  14.6 °C 57.2 °F /  14 °C 29.70in /  1005.6hPa Calm   4.0mph /  6.4km/h 96% 0.00in /  0mm
03:15 58.3 °F /  14.6 °C 56.9 °F /  13.8 °C 29.70in /  1005.6hPa Calm   3.0mph /  4.8km/h 95% 0.00in /  0mm
03:20 58.4 °F /  14.7 °C 57.0 °F /  13.9 °C 29.70in /  1005.6hPa Calm   1.0mph /  1.6km/h 95% 0.00in /  0mm
03:25 58.4 °F /  14.7 °C 57.0 °F /  13.9 °C 29.70in /  1005.6hPa Calm   1.0mph /  1.6km/h 95% 0.00in /  0mm
03:30 58.5 °F /  14.7 °C 57.4 °F /  14.1 °C 29.70in /  1005.6hPa Calm   1.0mph /  1.6km/h 96% 0.00in /  0mm
03:35 58.3 °F /  14.6 °C 56.9 °F /  13.8 °C 29.70in /  1005.6hPa Calm   1.0mph /  1.6km/h 95% 0.00in /  0mm
03:40 58.0 °F /  14.4 °C 56.6 °F /  13.7 °C 29.70in /  1005.6hPa Calm   1.0mph /  1.6km/h 95% 0.00in /  0mm
03:45 57.8 °F /  14.3 °C 56.4 °F /  13.6 °C 29.71in /  1006hPa SSW 1.0mph /  1.6km/h 3.0mph /  4.8km/h 95% 0.00in /  0mm
03:55 58.0 °F /  14.4 °C 56.9 °F /  13.8 °C 29.71in /  1006hPa Calm   1.0mph /  1.6km/h 96% 0.00in /  0mm
04:00 57.9 °F /  14.4 °C 56.8 °F /  13.8 °C 29.71in /  1006hPa WSW 1.0mph /  1.6km/h 6.0mph /  9.7km/h 96% 0.00in /  0mm
04:05 57.9 °F /  14.4 °C 56.8 °F /  13.8 °C 29.72in /  1006.3hPa West 2.0mph /  3.2km/h 6.0mph /  9.7km/h 96% 0.00in /  0mm
04:10 58.0 °F /  14.4 °C 56.9 °F /  13.8 °C 29.72in /  1006.3hPa Calm   5.0mph /  8km/h 96% 0.00in /  0mm
04:15 58.3 °F /  14.6 °C 57.2 °F /  14 °C 29.72in /  1006.3hPa WNW 4.0mph /  6.4km/h 9.0mph /  14.5km/h 96% 0.00in /  0mm
04:20 58.6 °F /  14.8 °C 57.5 °F /  14.2 °C 29.72in /  1006.3hPa WNW 1.0mph /  1.6km/h 9.0mph /  14.5km/h 96% 0.00in /  0mm
04:25 58.7 °F /  14.8 °C 57.6 °F /  14.2 °C 29.72in /  1006.3hPa Calm   6.0mph /  9.7km/h 96% 0.00in /  0mm
04:30 58.7 °F /  14.8 °C 57.6 °F /  14.2 °C 29.72in /  1006.3hPa WNW 3.0mph /  4.8km/h 7.0mph /  11.3km/h 96% 0.00in /  0mm
04:35 58.6 °F /  14.8 °C 57.5 °F /  14.2 °C 29.72in /  1006.3hPa WNW 1.0mph /  1.6km/h 7.0mph /  11.3km/h 96% 0.00in /  0mm
04:40 58.5 °F /  14.7 °C 57.1 °F /  13.9 °C 29.72in /  1006.3hPa Calm   5.0mph /  8km/h 95% 0.00in /  0mm
04:45 58.5 °F /  14.7 °C 57.1 °F /  13.9 °C 29.72in /  1006.3hPa Calm   4.0mph /  6.4km/h 95% 0.00in /  0mm
04:50 58.4 °F /  14.7 °C 57.0 °F /  13.9 °C 29.72in /  1006.3hPa Calm   3.0mph /  4.8km/h 95% 0.00in /  0mm
05:00 58.3 °F /  14.6 °C 56.9 °F /  13.8 °C 29.73in /  1006.7hPa WNW 1.0mph /  1.6km/h 4.0mph /  6.4km/h 95% 0.00in /  0mm
05:05 58.3 °F /  14.6 °C 56.9 °F /  13.8 °C 29.73in /  1006.7hPa West 1.0mph /  1.6km/h 9.0mph /  14.5km/h 95% 0.00in /  0mm
05:10 58.5 °F /  14.7 °C 57.1 °F /  13.9 °C 29.73in /  1006.7hPa Calm   9.0mph /  14.5km/h 95% 0.00in /  0mm
05:15 58.5 °F /  14.7 °C 57.1 °F /  13.9 °C 29.73in /  1006.7hPa WSW 1.0mph /  1.6km/h 5.0mph /  8km/h 95% 0.00in /  0mm
05:20 58.6 °F /  14.8 °C 57.2 °F /  14 °C 29.73in /  1006.7hPa Calm   5.0mph /  8km/h 95% 0.00in /  0mm
05:25 58.6 °F /  14.8 °C 57.2 °F /  14 °C 29.74in /  1007hPa Calm   5.0mph /  8km/h 95% 0.00in /  0mm
05:30 58.6 °F /  14.8 °C 57.2 °F /  14 °C 29.74in /  1007hPa Calm   4.0mph /  6.4km/h 95% 0.00in /  0mm
05:35 58.6 °F /  14.8 °C 57.2 °F /  14 °C 29.74in /  1007hPa Calm   7.0mph /  11.3km/h 95% 0.00in /  0mm
05:40 58.5 °F /  14.7 °C 57.1 °F /  13.9 °C 29.74in /  1007hPa Calm   7.0mph /  11.3km/h 95% 0.00in /  0mm
05:45 58.4 °F /  14.7 °C 57.0 °F /  13.9 °C 29.74in /  1007hPa Calm   1.0mph /  1.6km/h 95% 0.00in /  0mm
05:55 58.1 °F /  14.5 °C 56.7 °F /  13.7 °C 29.74in /  1007hPa Calm     95% 0.00in /  0mm
06:00 57.8 °F /  14.3 °C 56.4 °F /  13.6 °C 29.75in /  1007.3hPa Calm     95% 0.00in /  0mm
06:05 57.6 °F /  14.2 °C 56.2 °F /  13.4 °C 29.75in /  1007.3hPa Calm     95% 0.00in /  0mm
06:10 57.5 °F /  14.2 °C 56.1 °F /  13.4 °C 29.75in /  1007.3hPa Calm     95% 0.00in /  0mm
06:15 57.4 °F /  14.1 °C 56.0 °F /  13.3 °C 29.75in /  1007.3hPa Calm     95% 0.00in /  0mm
06:25 57.9 °F /  14.4 °C 56.5 °F /  13.6 °C 29.76in /  1007.7hPa Calm     95% 0.00in /  0mm
06:30 58.0 °F /  14.4 °C 56.6 °F /  13.7 °C 29.76in /  1007.7hPa Calm     95% 0.00in /  0mm
06:35 58.1 °F /  14.5 °C 56.7 °F /  13.7 °C 29.77in /  1008hPa Calm     95% 0.00in /  0mm
06:40 58.3 °F /  14.6 °C 56.9 °F /  13.8 °C 29.77in /  1008hPa Calm   1.0mph /  1.6km/h 95% 0.00in /  0mm
06:45 59.0 °F /  15 °C 57.9 °F /  14.4 °C 29.77in /  1008hPa Calm   6.0mph /  9.7km/h 96% 0.00in /  0mm
06:50 59.4 °F /  15.2 °C 58.3 °F /  14.6 °C 29.77in /  1008hPa Calm   6.0mph /  9.7km/h 96% 0.00in /  0mm
06:55 59.9 °F /  15.5 °C 58.8 °F /  14.9 °C 29.77in /  1008hPa WSW 2.0mph /  3.2km/h 6.0mph /  9.7km/h 96% 0.00in /  0mm
07:00 60.2 °F /  15.7 °C 59.1 °F /  15.1 °C 29.78in /  1008.4hPa West 1.0mph /  1.6km/h 7.0mph /  11.3km/h 96% 0.00in /  0mm
07:05 60.4 °F /  15.8 °C 59.3 °F /  15.2 °C 29.78in /  1008.4hPa West 1.0mph /  1.6km/h 7.0mph /  11.3km/h 96% 0.00in /  0mm
07:10 60.5 °F /  15.8 °C 59.4 °F /  15.2 °C 29.78in /  1008.4hPa West 1.0mph /  1.6km/h 5.0mph /  8km/h 96% 0.00in /  0mm
07:15 60.7 °F /  15.9 °C 59.3 °F /  15.2 °C 29.78in /  1008.4hPa Calm   5.0mph /  8km/h 95% 0.00in /  0mm
07:20 60.8 °F /  16 °C 59.4 °F /  15.2 °C 29.78in /  1008.4hPa West 1.0mph /  1.6km/h 5.0mph /  8km/h 95% 0.00in /  0mm
07:30 61.2 °F /  16.2 °C 59.8 °F /  15.4 °C 29.79in /  1008.7hPa Calm   5.0mph /  8km/h 95% 0.00in /  0mm
07:40 61.4 °F /  16.3 °C 59.7 °F /  15.4 °C 29.79in /  1008.7hPa West 1.0mph /  1.6km/h 4.0mph /  6.4km/h 94% 0.00in /  0mm
07:45 61.5 °F /  16.4 °C 59.8 °F /  15.4 °C 29.80in /  1009hPa Calm   4.0mph /  6.4km/h 94% 0.00in /  0mm
07:50 61.6 °F /  16.4 °C 59.9 °F /  15.5 °C 29.80in /  1009hPa Calm   5.0mph /  8km/h 94% 0.00in /  0mm
07:55 61.7 °F /  16.5 °C 60.0 °F /  15.6 °C 29.80in /  1009hPa Calm   6.0mph /  9.7km/h 94% 0.00in /  0mm
08:00 61.8 °F /  16.6 °C 59.8 °F /  15.4 °C 29.80in /  1009hPa WSW 2.0mph /  3.2km/h 6.0mph /  9.7km/h 93% 0.00in /  0mm
08:05 62.1 °F /  16.7 °C 60.1 °F /  15.6 °C 29.80in /  1009hPa Calm   5.0mph /  8km/h 93% 0.00in /  0mm
08:10 62.3 °F /  16.8 °C 60.3 °F /  15.7 °C 29.80in /  1009hPa Calm   4.0mph /  6.4km/h 93% 0.00in /  0mm
08:15 62.5 °F /  16.9 °C 60.4 °F /  15.8 °C 29.81in /  1009.4hPa WNW 1.0mph /  1.6km/h 5.0mph /  8km/h 93% 0.00in /  0mm
08:20 62.4 °F /  16.9 °C 60.0 °F /  15.6 °C 29.80in /  1009hPa NW 1.0mph /  1.6km/h 5.0mph /  8km/h 92% 0.00in /  0mm
08:25 62.4 °F /  16.9 °C 60.0 °F /  15.6 °C 29.81in /  1009.4hPa Calm   4.0mph /  6.4km/h 92% 0.00in /  0mm
08:30 62.5 °F /  16.9 °C 60.1 °F /  15.6 °C 29.81in /  1009.4hPa NW 1.0mph /  1.6km/h 3.0mph /  4.8km/h 92% 0.00in /  0mm
08:35 62.7 °F /  17.1 °C 60.3 °F /  15.7 °C 29.81in /  1009.4hPa Calm   3.0mph /  4.8km/h 92% 0.00in /  0mm
08:40 62.8 °F /  17.1 °C 60.4 °F /  15.8 °C 29.81in /  1009.4hPa Calm     92% 0.00in /  0mm
08:45 63.1 °F /  17.3 °C 61.0 °F /  16.1 °C 29.81in /  1009.4hPa Calm   3.0mph /  4.8km/h 93% 0.00in /  0mm
08:50 63.3 °F /  17.4 °C 60.9 °F /  16.1 °C 29.82in /  1009.7hPa NW 2.0mph /  3.2km/h 5.0mph /  8km/h 92% 0.00in /  0mm
08:55 63.6 °F /  17.6 °C 61.2 °F /  16.2 °C 29.82in /  1009.7hPa WNW 3.0mph /  4.8km/h 6.0mph /  9.7km/h 92% 0.00in /  0mm
09:00 63.9 °F /  17.7 °C 61.2 °F /  16.2 °C 29.82in /  1009.7hPa Calm   6.0mph /  9.7km/h 91% 0.00in /  0mm
09:05 64.3 °F /  17.9 °C 61.9 °F /  16.6 °C 29.82in /  1009.7hPa Calm   5.0mph /  8km/h 92% 0.00in /  0mm
09:10 64.5 °F /  18.1 °C 61.5 °F /  16.4 °C 29.82in /  1009.7hPa NW 3.0mph /  4.8km/h 6.0mph /  9.7km/h 90% 0.00in /  0mm
09:15 64.3 °F /  17.9 °C 61.0 °F /  16.1 °C 29.82in /  1009.7hPa WNW 1.0mph /  1.6km/h 6.0mph /  9.7km/h 89% 0.00in /  0mm
09:20 65.2 °F /  18.4 °C 62.5 °F /  16.9 °C 29.82in /  1009.7hPa Calm   5.0mph /  8km/h 91% 0.00in /  0mm
09:25 65.7 °F /  18.7 °C 62.1 °F /  16.7 °C 29.82in /  1009.7hPa NW 4.0mph /  6.4km/h 7.0mph /  11.3km/h 88% 0.00in /  0mm
09:30 66.0 °F /  18.9 °C 62.3 °F /  16.8 °C 29.82in /  1009.7hPa Calm   7.0mph /  11.3km/h 88% 0.00in /  0mm
09:35 66.2 °F /  19 °C 62.5 °F /  16.9 °C 29.82in /  1009.7hPa Calm   5.0mph /  8km/h 88% 0.00in /  0mm
09:40 66.0 °F /  18.9 °C 61.7 °F /  16.5 °C 29.82in /  1009.7hPa NW 1.0mph /  1.6km/h 7.0mph /  11.3km/h 86% 0.00in /  0mm
09:45 65.8 °F /  18.8 °C 61.2 °F /  16.2 °C 29.82in /  1009.7hPa NW 5.0mph /  8km/h 8.0mph /  12.9km/h 85% 0.00in /  0mm
09:50 65.6 °F /  18.7 °C 61.3 °F /  16.3 °C 29.82in /  1009.7hPa NW 2.0mph /  3.2km/h 8.0mph /  12.9km/h 86% 0.00in /  0mm
09:55 65.4 °F /  18.6 °C 61.1 °F /  16.2 °C 29.82in /  1009.7hPa NW 3.0mph /  4.8km/h 8.0mph /  12.9km/h 86% 0.00in /  0mm
10:00 65.1 °F /  18.4 °C 60.8 °F /  16 °C 29.83in /  1010hPa NW 2.0mph /  3.2km/h 8.0mph /  12.9km/h 86% 0.00in /  0mm
10:05 65.0 °F /  18.3 °C 61.4 °F /  16.3 °C 29.83in /  1010hPa Calm   7.0mph /  11.3km/h 88% 0.00in /  0mm
10:10 65.0 °F /  18.3 °C 61.4 °F /  16.3 °C 29.83in /  1010hPa NW 1.0mph /  1.6km/h 8.0mph /  12.9km/h 88% 0.00in /  0mm
10:15 65.2 °F /  18.4 °C 61.6 °F /  16.4 °C 29.83in /  1010hPa NW 3.0mph /  4.8km/h 8.0mph /  12.9km/h 88% 0.00in /  0mm
10:20 65.8 °F /  18.8 °C 62.5 °F /  16.9 °C 29.82in /  1009.7hPa NW 1.0mph /  1.6km/h 6.0mph /  9.7km/h 89% 0.00in /  0mm
10:25 66.5 °F /  19.2 °C 62.8 °F /  17.1 °C 29.83in /  1010hPa North 2.0mph /  3.2km/h 5.0mph /  8km/h 88% 0.00in /  0mm
10:30 66.9 °F /  19.4 °C 62.2 °F /  16.8 °C 29.83in /  1010hPa NNE 1.0mph /  1.6km/h 6.0mph /  9.7km/h 85% 0.00in /  0mm
10:35 66.8 °F /  19.3 °C 62.1 °F /  16.7 °C 29.83in /  1010hPa North 1.0mph /  1.6km/h 6.0mph /  9.7km/h 85% 0.00in /  0mm
10:40 66.6 °F /  19.2 °C 62.3 °F /  16.8 °C 29.84in /  1010.4hPa Calm   7.0mph /  11.3km/h 86% 0.00in /  0mm
10:45 66.6 °F /  19.2 °C 62.3 °F /  16.8 °C 29.84in /  1010.4hPa NNW 2.0mph /  3.2km/h 9.0mph /  14.5km/h 86% 0.00in /  0mm
10:50 66.6 °F /  19.2 °C 62.6 °F /  17 °C 29.84in /  1010.4hPa Calm   9.0mph /  14.5km/h 87% 0.00in /  0mm
10:55 66.9 °F /  19.4 °C 62.6 °F /  17 °C 29.84in /  1010.4hPa NNE 2.0mph /  3.2km/h 7.0mph /  11.3km/h 86% 0.00in /  0mm
11:00 67.1 °F /  19.5 °C 62.4 °F /  16.9 °C 29.84in /  1010.4hPa Calm   7.0mph /  11.3km/h 85% 0.00in /  0mm
11:05 67.4 °F /  19.7 °C 62.1 °F /  16.7 °C 29.84in /  1010.4hPa Calm   4.0mph /  6.4km/h 83% 0.00in /  0mm
11:10 67.8 °F /  19.9 °C 62.8 °F /  17.1 °C 29.84in /  1010.4hPa Calm   4.0mph /  6.4km/h 84% 0.00in /  0mm
11:15 68.1 °F /  20.1 °C 62.7 °F /  17.1 °C 29.85in /  1010.7hPa Calm   5.0mph /  8km/h 83% 0.00in /  0mm
11:20 68.1 °F /  20.1 °C 62.4 °F /  16.9 °C 29.85in /  1010.7hPa North 2.0mph /  3.2km/h 7.0mph /  11.3km/h 82% 0.00in /  0mm
11:25 68.0 °F /  20 °C 62.6 °F /  17 °C 29.85in /  1010.7hPa NNW 1.0mph /  1.6km/h 7.0mph /  11.3km/h 83% 0.00in /  0mm
11:30 67.8 °F /  19.9 °C 62.8 °F /  17.1 °C 29.85in /  1010.7hPa Calm   5.0mph /  8km/h 84% 0.00in /  0mm
11:35 67.9 °F /  19.9 °C 62.6 °F /  17 °C 29.85in /  1010.7hPa NE 1.0mph /  1.6km/h 5.0mph /  8km/h 83% 0.00in /  0mm
11:40 68.5 °F /  20.3 °C 63.1 °F /  17.3 °C 29.85in /  1010.7hPa Calm   5.0mph /  8km/h 83% 0.00in /  0mm
11:45 69.6 °F /  20.9 °C 64.2 °F /  17.9 °C 29.84in /  1010.4hPa North 1.0mph /  1.6km/h 5.0mph /  8km/h 83% 0.00in /  0mm
11:50 70.7 °F /  21.5 °C 63.5 °F /  17.5 °C 29.84in /  1010.4hPa NNE 2.0mph /  3.2km/h 7.0mph /  11.3km/h 78% 0.00in /  0mm
11:55 70.9 °F /  21.6 °C 63.3 °F /  17.4 °C 29.84in /  1010.4hPa NE 1.0mph /  1.6km/h 7.0mph /  11.3km/h 77% 0.00in /  0mm
12:00 70.9 °F /  21.6 °C 63.0 °F /  17.2 °C 29.84in /  1010.4hPa NE 1.0mph /  1.6km/h 7.0mph /  11.3km/h 76% 0.00in /  0mm
12:05 70.8 °F /  21.6 °C 62.5 °F /  16.9 °C 29.84in /  1010.4hPa NNE 3.0mph /  4.8km/h 7.0mph /  11.3km/h 75% 0.00in /  0mm
12:10 71.3 °F /  21.8 °C 64.5 °F /  18.1 °C 29.84in /  1010.4hPa Calm   7.0mph /  11.3km/h 79% 0.00in /  0mm
12:15 72.1 °F /  22.3 °C 63.7 °F /  17.6 °C 29.84in /  1010.4hPa NE 2.0mph /  3.2km/h 7.0mph /  11.3km/h 75% 0.00in /  0mm
12:20 72.4 °F /  22.4 °C 64.4 °F /  18 °C 29.84in /  1010.4hPa NE 3.0mph /  4.8km/h 8.0mph /  12.9km/h 76% 0.00in /  0mm
12:25 72.9 °F /  22.7 °C 64.5 °F /  18.1 °C 29.83in /  1010hPa Calm   8.0mph /  12.9km/h 75% 0.00in /  0mm
12:30 74.1 °F /  23.4 °C 64.5 °F /  18.1 °C 29.84in /  1010.4hPa NNE 1.0mph /  1.6km/h 9.0mph /  14.5km/h 72% 0.00in /  0mm
12:40 74.7 °F /  23.7 °C 64.7 °F /  18.2 °C 29.84in /  1010.4hPa NNW 1.0mph /  1.6km/h 7.0mph /  11.3km/h 71% 0.00in /  0mm
12:45 73.5 °F /  23.1 °C 62.3 °F /  16.8 °C 29.85in /  1010.7hPa NW 6.0mph /  9.7km/h 10.0mph /  16.1km/h 68% 0.00in /  0mm
12:50 71.9 °F /  22.2 °C 62.4 °F /  16.9 °C 29.85in /  1010.7hPa NW 1.0mph /  1.6km/h 10.0mph /  16.1km/h 72% 0.00in /  0mm
12:55 71.1 °F /  21.7 °C 63.2 °F /  17.3 °C 29.85in /  1010.7hPa Calm   10.0mph /  16.1km/h 76% 0.00in /  0mm
13:00 70.6 °F /  21.4 °C 61.9 °F /  16.6 °C 29.86in /  1011.1hPa NW 5.0mph /  8km/h 10.0mph /  16.1km/h 74% 0.00in /  0mm
13:05 70.5 °F /  21.4 °C 62.6 °F /  17 °C 29.86in /  1011.1hPa WNW 2.0mph /  3.2km/h 10.0mph /  16.1km/h 76% 0.00in /  0mm
13:10 71.0 °F /  21.7 °C 63.4 °F /  17.4 °C 29.86in /  1011.1hPa Calm   10.0mph /  16.1km/h 77% 0.00in /  0mm
13:15 72.1 °F /  22.3 °C 63.0 °F /  17.2 °C 29.85in /  1010.7hPa NW 6.0mph /  9.7km/h 12.0mph /  19.3km/h 73% 0.00in /  0mm
13:20 73.3 °F /  22.9 °C 63.7 °F /  17.6 °C 29.86in /  1011.1hPa NW 3.0mph /  4.8km/h 12.0mph /  19.3km/h 72% 0.00in /  0mm
13:25 73.9 °F /  23.3 °C 63.9 °F /  17.7 °C 29.86in /  1011.1hPa NW 4.0mph /  6.4km/h 12.0mph /  19.3km/h 71% 0.00in /  0mm
13:30 74.4 °F /  23.6 °C 64.4 °F /  18 °C 29.86in /  1011.1hPa NW 7.0mph /  11.3km/h 13.0mph /  20.9km/h 71% 0.00in /  0mm
13:35 73.6 °F /  23.1 °C 61.6 °F /  16.4 °C 29.86in /  1011.1hPa NW 5.0mph /  8km/h 13.0mph /  20.9km/h 66% 0.00in /  0mm
13:40 71.9 °F /  22.2 °C 60.8 °F /  16 °C 29.86in /  1011.1hPa NW 7.0mph /  11.3km/h 13.0mph /  20.9km/h 68% 0.00in /  0mm
13:45 71.3 °F /  21.8 °C 63.0 °F /  17.2 °C 29.86in /  1011.1hPa Calm   12.0mph /  19.3km/h 75% 0.00in /  0mm
13:50 71.3 °F /  21.8 °C 63.4 °F /  17.4 °C 29.86in /  1011.1hPa Calm   7.0mph /  11.3km/h 76% 0.00in /  0mm
13:55 71.3 °F /  21.8 °C 62.6 °F /  17 °C 29.87in /  1011.4hPa Calm   6.0mph /  9.7km/h 74% 0.00in /  0mm
14:00 71.4 °F /  21.9 °C 62.7 °F /  17.1 °C 29.86in /  1011.1hPa Calm   6.0mph /  9.7km/h 74% 0.00in /  0mm
14:05 71.6 °F /  22 °C 62.1 °F /  16.7 °C 29.87in /  1011.4hPa NW 2.0mph /  3.2km/h 6.0mph /  9.7km/h 72% 0.00in /  0mm
14:10 71.7 °F /  22.1 °C 62.6 °F /  17 °C 29.87in /  1011.4hPa North 1.0mph /  1.6km/h 6.0mph /  9.7km/h 73% 0.00in /  0mm
14:15 71.8 °F /  22.1 °C 63.8 °F /  17.7 °C 29.87in /  1011.4hPa Calm   4.0mph /  6.4km/h 76% 0.00in /  0mm
14:20 72.1 °F /  22.3 °C 63.4 °F /  17.4 °C 29.87in /  1011.4hPa NW 3.0mph /  4.8km/h 9.0mph /  14.5km/h 74% 0.00in /  0mm
14:30 73.7 °F /  23.2 °C 62.9 °F /  17.2 °C 29.87in /  1011.4hPa NNE 1.0mph /  1.6km/h 8.0mph /  12.9km/h 69% 0.00in /  0mm
14:35 73.9 °F /  23.3 °C 63.9 °F /  17.7 °C 29.87in /  1011.4hPa Calm   5.0mph /  8km/h 71% 0.00in /  0mm
14:40 73.7 °F /  23.2 °C 62.9 °F /  17.2 °C 29.87in /  1011.4hPa Calm   4.0mph /  6.4km/h 69% 0.00in /  0mm
14:45 73.6 °F /  23.1 °C 64.0 °F /  17.8 °C 29.87in /  1011.4hPa NW 2.0mph /  3.2km/h 6.0mph /  9.7km/h 72% 0.00in /  0mm
14:50 74.0 °F /  23.3 °C 62.8 °F /  17.1 °C 29.87in /  1011.4hPa NW 1.0mph /  1.6km/h 8.0mph /  12.9km/h 68% 0.00in /  0mm
14:55 74.8 °F /  23.8 °C 64.8 °F /  18.2 °C 29.87in /  1011.4hPa NW 2.0mph /  3.2km/h 9.0mph /  14.5km/h 71% 0.00in /  0mm
15:00 75.2 °F /  24 °C 64.8 °F /  18.2 °C 29.87in /  1011.4hPa WNW 2.0mph /  3.2km/h 9.0mph /  14.5km/h 70% 0.00in /  0mm
15:05 75.5 °F /  24.2 °C 64.2 °F /  17.9 °C 29.87in /  1011.4hPa NW 4.0mph /  6.4km/h 10.0mph /  16.1km/h 68% 0.00in /  0mm
15:10 75.7 °F /  24.3 °C 62.7 °F /  17.1 °C 29.87in /  1011.4hPa WNW 6.0mph /  9.7km/h 12.0mph /  19.3km/h 64% 0.00in /  0mm
15:15 75.8 °F /  24.3 °C 64.5 °F /  18.1 °C 29.87in /  1011.4hPa NW 2.0mph /  3.2km/h 12.0mph /  19.3km/h 68% 0.00in /  0mm
15:20 76.0 °F /  24.4 °C 62.5 °F /  16.9 °C 29.87in /  1011.4hPa NW 7.0mph /  11.3km/h 12.0mph /  19.3km/h 63% 0.00in /  0mm
15:25 75.8 °F /  24.3 °C 64.1 °F /  17.8 °C 29.87in /  1011.4hPa NNE 2.0mph /  3.2km/h 12.0mph /  19.3km/h 67% 0.00in /  0mm
15:30 76.0 °F /  24.4 °C 66.3 °F /  19.1 °C 29.87in /  1011.4hPa NNW 1.0mph /  1.6km/h 10.0mph /  16.1km/h 72% 0.00in /  0mm
15:35 75.1 °F /  23.9 °C 62.5 °F /  16.9 °C 29.87in /  1011.4hPa NE 3.0mph /  4.8km/h 10.0mph /  16.1km/h 65% 0.00in /  0mm
15:40 73.8 °F /  23.2 °C 62.6 °F /  17 °C 29.88in /  1011.7hPa ENE 1.0mph /  1.6km/h 10.0mph /  16.1km/h 68% 0.00in /  0mm
15:45 73.3 °F /  22.9 °C 61.7 °F /  16.5 °C 29.87in /  1011.4hPa NNE 3.0mph /  4.8km/h 10.0mph /  16.1km/h 67% 0.00in /  0mm
15:50 73.2 °F /  22.9 °C 62.0 °F /  16.7 °C 29.87in /  1011.4hPa NNE 1.0mph /  1.6km/h 10.0mph /  16.1km/h 68% 0.00in /  0mm
15:55 73.5 °F /  23.1 °C 63.1 °F /  17.3 °C 29.88in /  1011.7hPa NW 1.0mph /  1.6km/h 10.0mph /  16.1km/h 70% 0.00in /  0mm
16:00 74.0 °F /  23.3 °C 61.9 °F /  16.6 °C 29.88in /  1011.7hPa NNE 2.0mph /  3.2km/h 8.0mph /  12.9km/h 66% 0.00in /  0mm
16:05 74.7 °F /  23.7 °C 65.1 °F /  18.4 °C 29.88in /  1011.7hPa NE 1.0mph /  1.6km/h 7.0mph /  11.3km/h 72% 0.00in /  0mm
16:10 75.2 °F /  24 °C 64.3 °F /  17.9 °C 29.88in /  1011.7hPa NNE 1.0mph /  1.6km/h 5.0mph /  8km/h 69% 0.00in /  0mm
16:15 75.9 °F /  24.4 °C 63.7 °F /  17.6 °C 29.88in /  1011.7hPa Calm   5.0mph /  8km/h 66% 0.00in /  0mm
16:20 76.3 °F /  24.6 °C 63.7 °F /  17.6 °C 29.88in /  1011.7hPa NE 1.0mph /  1.6km/h 10.0mph /  16.1km/h 65% 0.00in /  0mm
16:25 76.6 °F /  24.8 °C 62.2 °F /  16.8 °C 29.88in /  1011.7hPa NE 1.0mph /  1.6km/h 10.0mph /  16.1km/h 61% 0.00in /  0mm
16:30 76.9 °F /  24.9 °C 64.3 °F /  17.9 °C 29.88in /  1011.7hPa NW 1.0mph /  1.6km/h 6.0mph /  9.7km/h 65% 0.00in /  0mm
16:35 76.8 °F /  24.9 °C 63.3 °F /  17.4 °C 29.88in /  1011.7hPa NW 2.0mph /  3.2km/h 10.0mph /  16.1km/h 63% 0.00in /  0mm
16:40 76.9 °F /  24.9 °C 63.4 °F /  17.4 °C 29.88in /  1011.7hPa NW 1.0mph /  1.6km/h 11.0mph /  17.7km/h 63% 0.00in /  0mm
16:45 76.8 °F /  24.9 °C 63.7 °F /  17.6 °C 29.89in /  1012.1hPa NNE 1.0mph /  1.6km/h 11.0mph /  17.7km/h 64% 0.00in /  0mm
16:50 76.6 °F /  24.8 °C 64.8 °F /  18.2 °C 29.89in /  1012.1hPa NNW 1.0mph /  1.6km/h 10.0mph /  16.1km/h 67% 0.00in /  0mm
16:55 76.7 °F /  24.8 °C 62.7 °F /  17.1 °C 29.89in /  1012.1hPa North 1.0mph /  1.6km/h 8.0mph /  12.9km/h 62% 0.00in /  0mm
17:00 76.4 °F /  24.7 °C 63.8 °F /  17.7 °C 29.89in /  1012.1hPa NW 1.0mph /  1.6km/h 8.0mph /  12.9km/h 65% 0.00in /  0mm
17:05 76.3 °F /  24.6 °C 63.2 °F /  17.3 °C 29.90in /  1012.4hPa NW 1.0mph /  1.6km/h 11.0mph /  17.7km/h 64% 0.00in /  0mm
17:10 76.0 °F /  24.4 °C 63.0 °F /  17.2 °C 29.90in /  1012.4hPa Calm   11.0mph /  17.7km/h 64% 0.00in /  0mm
17:20 75.8 °F /  24.3 °C 62.3 °F /  16.8 °C 29.90in /  1012.4hPa Calm   9.0mph /  14.5km/h 63% 0.00in /  0mm
17:25 75.7 °F /  24.3 °C 62.2 °F /  16.8 °C 29.90in /  1012.4hPa NNW 1.0mph /  1.6km/h 10.0mph /  16.1km/h 63% 0.00in /  0mm
17:35 75.9 °F /  24.4 °C 64.2 °F /  17.9 °C 29.90in /  1012.4hPa NNW 1.0mph /  1.6km/h 10.0mph /  16.1km/h 67% 0.00in /  0mm
17:40 76.1 °F /  24.5 °C 63.1 °F /  17.3 °C 29.90in /  1012.4hPa Calm   10.0mph /  16.1km/h 64% 0.00in /  0mm
17:45 75.7 °F /  24.3 °C 61.3 °F /  16.3 °C 29.90in /  1012.4hPa North 1.0mph /  1.6km/h 9.0mph /  14.5km/h 61% 0.00in /  0mm
17:50 75.4 °F /  24.1 °C 61.9 °F /  16.6 °C 29.90in /  1012.4hPa Calm   9.0mph /  14.5km/h 63% 0.00in /  0mm
17:55 75.3 °F /  24.1 °C 61.8 °F /  16.6 °C 29.90in /  1012.4hPa Calm   7.0mph /  11.3km/h 63% 0.00in /  0mm
18:00 75.3 °F /  24.1 °C 61.4 °F /  16.3 °C 29.90in /  1012.4hPa NNE 1.0mph /  1.6km/h 7.0mph /  11.3km/h 62% 0.00in /  0mm
18:05 75.3 °F /  24.1 °C 62.3 °F /  16.8 °C 29.90in /  1012.4hPa Calm   5.0mph /  8km/h 64% 0.00in /  0mm
18:10 75.4 °F /  24.1 °C 62.8 °F /  17.1 °C 29.90in /  1012.4hPa Calm   4.0mph /  6.4km/h 65% 0.00in /  0mm
18:15 75.3 °F /  24.1 °C 63.2 °F /  17.3 °C 29.90in /  1012.4hPa Calm   6.0mph /  9.7km/h 66% 0.00in /  0mm
18:20 75.2 °F /  24 °C 62.2 °F /  16.8 °C 29.90in /  1012.4hPa Calm   7.0mph /  11.3km/h 64% 0.00in /  0mm
18:25 74.9 °F /  23.8 °C 60.6 °F /  15.9 °C 29.90in /  1012.4hPa NNE 1.0mph /  1.6km/h 7.0mph /  11.3km/h 61% 0.00in /  0mm
18:30 74.6 °F /  23.7 °C 61.6 °F /  16.4 °C 29.90in /  1012.4hPa Calm   6.0mph /  9.7km/h 64% 0.00in /  0mm
18:35 74.3 °F /  23.5 °C 61.8 °F /  16.6 °C 29.90in /  1012.4hPa Calm   7.0mph /  11.3km/h 65% 0.00in /  0mm
18:40 74.0 °F /  23.3 °C 61.1 °F /  16.2 °C 29.90in /  1012.4hPa Calm   7.0mph /  11.3km/h 64% 0.00in /  0mm
18:45 73.7 °F /  23.2 °C 61.6 °F /  16.4 °C 29.90in /  1012.4hPa Calm   5.0mph /  8km/h 66% 0.00in /  0mm
18:50 73.5 °F /  23.1 °C 61.9 °F /  16.6 °C 29.90in /  1012.4hPa Calm   4.0mph /  6.4km/h 67% 0.00in /  0mm
18:55 73.5 °F /  23.1 °C 62.7 °F /  17.1 °C 29.91in /  1012.8hPa Calm   1.0mph /  1.6km/h 69% 0.00in /  0mm
19:00 73.3 °F /  22.9 °C 60.4 °F /  15.8 °C 29.90in /  1012.4hPa NE 1.0mph /  1.6km/h 3.0mph /  4.8km/h 64% 0.00in /  0mm
19:05 73.1 °F /  22.8 °C 61.9 °F /  16.6 °C 29.91in /  1012.8hPa Calm   3.0mph /  4.8km/h 68% 0.00in /  0mm
19:10 72.8 °F /  22.7 °C 61.2 °F /  16.2 °C 29.91in /  1012.8hPa NE 1.0mph /  1.6km/h 4.0mph /  6.4km/h 67% 0.00in /  0mm
19:15 72.5 °F /  22.5 °C 61.4 °F /  16.3 °C 29.91in /  1012.8hPa Calm   4.0mph /  6.4km/h 68% 0.00in /  0mm
19:20 72.2 °F /  22.3 °C 61.5 °F /  16.4 °C 29.91in /  1012.8hPa Calm   1.0mph /  1.6km/h 69% 0.00in /  0mm
19:25 72.0 °F /  22.2 °C 62.1 °F /  16.7 °C 29.91in /  1012.8hPa Calm   1.0mph /  1.6km/h 71% 0.00in /  0mm
19:30 71.7 °F /  22.1 °C 61.8 °F /  16.6 °C 29.91in /  1012.8hPa Calm     71% 0.00in /  0mm
19:35 71.2 °F /  21.8 °C 61.7 °F /  16.5 °C 29.91in /  1012.8hPa Calm   1.0mph /  1.6km/h 72% 0.00in /  0mm
19:40 70.5 °F /  21.4 °C 61.8 °F /  16.6 °C 29.92in /  1013.1hPa Calm   1.0mph /  1.6km/h 74% 0.00in /  0mm
19:45 70.0 °F /  21.1 °C 61.3 °F /  16.3 °C 29.92in /  1013.1hPa Calm   1.0mph /  1.6km/h 74% 0.00in /  0mm
19:50 69.5 °F /  20.8 °C 61.2 °F /  16.2 °C 29.92in /  1013.1hPa Calm     75% 0.00in /  0mm
19:55 68.9 °F /  20.5 °C 61.4 °F /  16.3 °C 29.92in /  1013.1hPa Calm     77% 0.00in /  0mm
20:00 68.3 °F /  20.2 °C 61.2 °F /  16.2 °C 29.92in /  1013.1hPa Calm     78% 0.00in /  0mm
20:05 67.6 °F /  19.8 °C 60.9 °F /  16.1 °C 29.92in /  1013.1hPa Calm     79% 0.00in /  0mm
20:10 67.1 °F /  19.5 °C 60.7 °F /  15.9 °C 29.92in /  1013.1hPa Calm     80% 0.00in /  0mm
20:15 66.3 °F /  19.1 °C 60.0 °F /  15.6 °C 29.92in /  1013.1hPa Calm     80% 0.00in /  0mm
20:20 65.3 °F /  18.5 °C 59.0 °F /  15 °C 29.92in /  1013.1hPa Calm     80% 0.00in /  0mm
20:25 64.5 °F /  18.1 °C 58.5 °F /  14.7 °C 29.92in /  1013.1hPa Calm     81% 0.00in /  0mm
20:30 63.7 °F /  17.6 °C 58.1 °F /  14.5 °C 29.92in /  1013.1hPa Calm     82% 0.00in /  0mm
20:35 62.9 °F /  17.2 °C 58.0 °F /  14.4 °C 29.92in /  1013.1hPa Calm     84% 0.00in /  0mm
20:40 62.3 °F /  16.8 °C 57.4 °F /  14.1 °C 29.93in /  1013.4hPa Calm     84% 0.00in /  0mm
20:45 61.7 °F /  16.5 °C 57.1 °F /  13.9 °C 29.93in /  1013.4hPa Calm     85% 0.00in /  0mm
20:55 60.6 °F /  15.9 °C 56.7 °F /  13.7 °C 29.93in /  1013.4hPa Calm     87% 0.00in /  0mm
21:00 60.2 °F /  15.7 °C 56.3 °F /  13.5 °C 29.93in /  1013.4hPa Calm     87% 0.00in /  0mm
21:05 59.9 °F /  15.5 °C 56.3 °F /  13.5 °C 29.94in /  1013.8hPa Calm     88% 0.00in /  0mm
21:10 59.6 °F /  15.3 °C 56.0 °F /  13.3 °C 29.94in /  1013.8hPa Calm   2.0mph /  3.2km/h 88% 0.00in /  0mm
21:15 59.0 °F /  15 °C 55.5 °F /  13.1 °C 29.94in /  1013.8hPa Calm   2.0mph /  3.2km/h 88% 0.00in /  0mm
21:20 59.0 °F /  15 °C 55.8 °F /  13.2 °C 29.94in /  1013.8hPa Calm     89% 0.00in /  0mm
21:25 58.7 °F /  14.8 °C 55.5 °F /  13.1 °C 29.94in /  1013.8hPa Calm   1.0mph /  1.6km/h 89% 0.00in /  0mm
21:30 58.6 °F /  14.8 °C 55.7 °F /  13.2 °C 29.94in /  1013.8hPa Calm   1.0mph /  1.6km/h 90% 0.00in /  0mm
21:40 58.3 °F /  14.6 °C 55.7 °F /  13.2 °C 29.95in /  1014.1hPa Calm     91% 0.00in /  0mm
21:45 58.2 °F /  14.6 °C 55.6 °F /  13.1 °C 29.94in /  1013.8hPa Calm     91% 0.00in /  0mm
21:50 58.1 °F /  14.5 °C 55.5 °F /  13.1 °C 29.95in /  1014.1hPa Calm     91% 0.00in /  0mm
21:55 57.9 °F /  14.4 °C 55.3 °F /  12.9 °C 29.95in /  1014.1hPa Calm     91% 0.00in /  0mm
22:00 57.9 °F /  14.4 °C 55.3 °F /  12.9 °C 29.95in /  1014.1hPa Calm     91% 0.00in /  0mm
22:10 57.7 °F /  14.3 °C 55.4 °F /  13 °C 29.95in /  1014.1hPa Calm     92% 0.00in /  0mm
22:15 57.5 °F /  14.2 °C 55.2 °F /  12.9 °C 29.95in /  1014.1hPa Calm     92% 0.00in /  0mm
22:20 57.5 °F /  14.2 °C 55.2 °F /  12.9 °C 29.96in /  1014.4hPa Calm     92% 0.00in /  0mm
22:25 57.4 °F /  14.1 °C 55.1 °F /  12.8 °C 29.96in /  1014.4hPa Calm     92% 0.00in /  0mm
22:30 57.4 °F /  14.1 °C 55.1 °F /  12.8 °C 29.96in /  1014.4hPa Calm     92% 0.00in /  0mm
22:35 57.3 °F /  14.1 °C 55.0 °F /  12.8 °C 29.96in /  1014.4hPa Calm     92% 0.00in /  0mm
22:40 57.3 °F /  14.1 °C 55.3 °F /  12.9 °C 29.96in /  1014.4hPa Calm     93% 0.00in /  0mm
22:45 57.2 °F /  14 °C 55.2 °F /  12.9 °C 29.96in /  1014.4hPa Calm     93% 0.00in /  0mm
22:50 57.3 °F /  14.1 °C 55.3 °F /  12.9 °C 29.96in /  1014.4hPa Calm     93% 0.00in /  0mm
22:55 57.1 °F /  13.9 °C 55.1 °F /  12.8 °C 29.96in /  1014.4hPa Calm     93% 0.00in /  0mm
23:00 56.8 °F /  13.8 °C 54.8 °F /  12.7 °C 29.97in /  1014.8hPa Calm     93% 0.00in /  0mm
23:05 56.7 °F /  13.7 °C 54.7 °F /  12.6 °C 29.97in /  1014.8hPa Calm     93% 0.00in /  0mm
23:10 56.8 °F /  13.8 °C 54.8 °F /  12.7 °C 29.97in /  1014.8hPa Calm     93% 0.00in /  0mm
23:15 56.8 °F /  13.8 °C 54.8 °F /  12.7 °C 29.96in /  1014.4hPa Calm     93% 0.00in /  0mm
23:20 56.6 °F /  13.7 °C 54.6 °F /  12.6 °C 29.96in /  1014.4hPa Calm     93% 0.00in /  0mm
23:25 56.5 °F /  13.6 °C 54.5 °F /  12.5 °C 29.97in /  1014.8hPa Calm     93% 0.00in /  0mm
23:30 56.3 °F /  13.5 °C 54.3 °F /  12.4 °C 29.97in /  1014.8hPa Calm     93% 0.00in /  0mm
23:35 56.2 °F /  13.4 °C 54.5 °F /  12.5 °C 29.97in /  1014.8hPa Calm     94% 0.00in /  0mm
23:40 56.2 °F /  13.4 °C 54.5 °F /  12.5 °C 29.97in /  1014.8hPa Calm     94% 0.00in /  0mm
23:45 56.2 °F /  13.4 °C 54.5 °F /  12.5 °C 29.97in /  1014.8hPa Calm     94% 0.00in /  0mm
23:50 56.1 °F /  13.4 °C 54.4 °F /  12.4 °C 29.97in /  1014.8hPa Calm     94% 0.00in /  0mm
23:55 56.1 °F /  13.4 °C 54.4 °F /  12.4 °C 29.97in /  1014.8hPa Calm     94% 0.00in /  0mm
Westford Weather
Compliments of Weather Underground

 
 
Current Radar Loop:

Copyright © WestfordWeather.net 2007-2014. All rights reserved.